createdAt,value
2023-03-12T00:03:07.740Z,15547.88
2023-03-12T00:07:09.320Z,15601.03
2023-03-12T00:11:12.494Z,15617.41
2023-03-12T00:15:15.355Z,15596.94
2023-03-12T00:19:16.812Z,15564.25
2023-03-12T00:23:18.262Z,15582.63
2023-03-12T00:27:19.881Z,15576.50
2023-03-12T00:31:26.477Z,15584.69
2023-03-12T00:35:27.922Z,15601.03
2023-03-12T00:39:29.587Z,15586.72
2023-03-12T00:43:31.475Z,15582.63
2023-03-12T00:47:34.576Z,15547.88
2023-03-12T00:51:36.006Z,15539.69
2023-03-12T00:55:37.461Z,15576.50
2023-03-12T00:59:38.897Z,15564.25
2023-03-12T01:03:42.640Z,15558.09
2023-03-12T01:07:44.119Z,15529.47
2023-03-12T01:11:45.923Z,15490.63
2023-03-12T01:15:47.555Z,15509.03
2023-03-12T01:19:50.578Z,15531.53
2023-03-12T01:23:53.093Z,15468.16
2023-03-12T01:27:54.543Z,15504.94
2023-03-12T01:31:56.252Z,15531.53
2023-03-12T01:35:59.720Z,15551.97
2023-03-12T01:40:01.742Z,15549.94
2023-03-12T01:44:04.511Z,15572.41
2023-03-12T01:48:05.957Z,15529.47
2023-03-12T01:52:12.548Z,15584.69
2023-03-12T01:56:17.639Z,15568.31
2023-03-12T02:00:22.440Z,15588.78
2023-03-12T02:04:25.948Z,15588.78
2023-03-12T02:08:29.436Z,15605.13
2023-03-12T02:12:31.329Z,15576.50
2023-03-12T02:16:33.436Z,15584.69
2023-03-12T02:20:39.687Z,15576.50
2023-03-12T02:24:48.240Z,15564.25
2023-03-12T02:28:51.764Z,15547.88
2023-03-12T02:32:54.645Z,15547.88
2023-03-12T02:36:56.229Z,15486.53
2023-03-12T02:41:00.241Z,15507.00
2023-03-12T02:45:05.690Z,15525.41
2023-03-12T02:49:08.396Z,15490.63
2023-03-12T02:53:09.846Z,15509.03
2023-03-12T02:57:11.833Z,15513.13
2023-03-12T03:01:15.088Z,15523.34
2023-03-12T03:05:17.060Z,15502.91
2023-03-12T03:09:18.847Z,15533.56
2023-03-12T03:13:20.470Z,15574.47
2023-03-12T03:17:23.747Z,15515.16
2023-03-12T03:21:25.333Z,15537.66
2023-03-12T03:25:27.142Z,15541.75
2023-03-12T03:29:28.795Z,15511.09
2023-03-12T03:33:34.982Z,15507.00
2023-03-12T03:37:36.687Z,15523.34
2023-03-12T03:41:38.527Z,15543.78
2023-03-12T03:45:41.693Z,15572.41
2023-03-12T03:49:44.668Z,15556.06
2023-03-12T03:53:47.712Z,15545.84
2023-03-12T03:57:49.473Z,15507.00
2023-03-12T04:01:51.141Z,15543.78
2023-03-12T04:05:56.083Z,15527.44
2023-03-12T04:09:58.824Z,15558.09
2023-03-12T04:14:00.394Z,15545.84
2023-03-12T04:18:02.054Z,15535.63
2023-03-12T04:22:08.226Z,15554.00
2023-03-12T04:26:10.233Z,15531.53
2023-03-12T04:30:12.640Z,15515.16
2023-03-12T04:34:14.664Z,15478.38
2023-03-12T04:38:17.859Z,15462.00
2023-03-12T04:42:19.451Z,15421.13
2023-03-12T04:46:21.017Z,15400.69
2023-03-12T04:50:22.760Z,15408.84
2023-03-12T04:54:25.746Z,15392.50
2023-03-12T04:58:27.435Z,15388.41
2023-03-12T05:02:28.862Z,15363.88
2023-03-12T05:06:30.694Z,15376.16
2023-03-12T05:10:33.493Z,15353.66
2023-03-12T05:14:34.955Z,15339.34
2023-03-12T05:18:36.984Z,15320.94
2023-03-12T05:22:38.913Z,15343.44
2023-03-12T05:26:43.122Z,15312.78
2023-03-12T05:30:44.677Z,15286.19
2023-03-12T05:34:47.575Z,15286.19
2023-03-12T05:38:49.033Z,15261.66
2023-03-12T05:42:53.154Z,15273.94
2023-03-12T05:46:58.717Z,15253.50
2023-03-12T05:51:00.701Z,15280.06
2023-03-12T05:55:02.123Z,15267.81
2023-03-12T05:59:06.093Z,15251.44
2023-03-12T06:03:08.407Z,15243.28
2023-03-12T06:07:10.128Z,15253.50
2023-03-12T06:11:12.479Z,15261.66
2023-03-12T06:15:15.784Z,15239.19
2023-03-12T06:19:17.238Z,15243.28
2023-03-12T06:23:21.543Z,15271.88
2023-03-12T06:27:23.978Z,15251.44
2023-03-12T06:31:27.082Z,15251.44
2023-03-12T06:35:28.647Z,15253.50
2023-03-12T06:39:30.306Z,15241.22
2023-03-12T06:43:33.383Z,15243.28
2023-03-12T06:47:36.416Z,15237.13
2023-03-12T06:51:39.374Z,15294.38
2023-03-12T06:55:40.865Z,15222.81
2023-03-12T06:59:42.660Z,15247.34
2023-03-12T07:03:45.435Z,15253.50
2023-03-12T07:07:49.633Z,15251.44
2023-03-12T07:11:51.275Z,15255.53
2023-03-12T07:15:53.995Z,15251.44
2023-03-12T07:19:57.307Z,15253.50
2023-03-12T07:23:59.075Z,15233.03
2023-03-12T07:28:01.702Z,15257.56
2023-03-12T07:32:03.892Z,15216.69
2023-03-12T07:36:08.801Z,15241.22
2023-03-12T07:40:12.072Z,15253.50
2023-03-12T07:44:15.960Z,15241.22
2023-03-12T07:48:18.055Z,15253.50
2023-03-12T07:52:22.390Z,15255.53
2023-03-12T07:56:24.214Z,15241.22
2023-03-12T08:00:26.223Z,15237.13
2023-03-12T08:04:27.748Z,15228.97
2023-03-12T08:08:31.773Z,15263.72
2023-03-12T08:12:34.393Z,15212.59
2023-03-12T08:16:36.032Z,15202.38
2023-03-12T08:20:37.425Z,15196.25
2023-03-12T08:24:40.830Z,15196.25
2023-03-12T08:28:42.402Z,15179.91
2023-03-12T08:32:44.384Z,15171.72
2023-03-12T08:36:46.539Z,15143.09
2023-03-12T08:41:00.631Z,15124.69
2023-03-12T08:45:03.151Z,15151.28
2023-03-12T08:49:04.540Z,15081.78
2023-03-12T08:53:06.247Z,15085.84
2023-03-12T08:57:09.549Z,15094.03
2023-03-12T09:01:13.429Z,15083.81
2023-03-12T09:05:15.160Z,15087.91
2023-03-12T09:09:16.566Z,15028.63
2023-03-12T09:13:19.319Z,15016.34
2023-03-12T09:17:20.741Z,14991.81
2023-03-12T09:21:22.319Z,14946.84
2023-03-12T09:25:23.834Z,14932.53
2023-03-12T09:29:28.296Z,14918.25
2023-03-12T09:33:29.945Z,14816.03
2023-03-12T09:37:31.446Z,14801.72
2023-03-12T09:41:36.522Z,14826.25
2023-03-12T09:45:45.230Z,14820.13
2023-03-12T09:49:51.521Z,14779.25
2023-03-12T09:53:55.735Z,14803.78
2023-03-12T09:57:57.209Z,14773.09
2023-03-12T10:02:06.141Z,14726.09
2023-03-12T10:06:13.595Z,14570.75
2023-03-12T10:10:36.646Z,14456.28
2023-03-12T10:14:50.687Z,14347.97
2023-03-12T10:19:12.347Z,14117.03
2023-03-12T10:23:28.115Z,14006.66
2023-03-12T10:27:34.848Z,13937.19
2023-03-12T10:31:43.929Z,13892.22
2023-03-12T10:35:47.570Z,13800.25
2023-03-12T10:39:49.959Z,13755.31
2023-03-12T10:43:51.983Z,13728.72
2023-03-12T10:47:57.613Z,13708.28
2023-03-12T10:52:03.756Z,13675.59
2023-03-12T10:56:08.295Z,13677.66
2023-03-12T11:00:17.871Z,13608.16
2023-03-12T11:04:24.913Z,13626.56
2023-03-12T11:08:29.837Z,13614.31
2023-03-12T11:12:31.356Z,13642.91
2023-03-12T11:16:33.106Z,13716.47
2023-03-12T11:20:35.444Z,13700.13
2023-03-12T11:24:55.511Z,13724.66
2023-03-12T11:29:02.921Z,13722.59
2023-03-12T11:33:04.854Z,13728.72
2023-03-12T11:37:13.765Z,13783.91
2023-03-12T11:41:29.928Z,13798.22
2023-03-12T11:45:43.344Z,13843.16
2023-03-12T11:50:00.730Z,13818.66
2023-03-12T11:54:18.188Z,13820.69
2023-03-12T11:58:54.786Z,13851.34
2023-03-12T12:03:39.558Z,13853.38
2023-03-12T12:07:53.680Z,13933.09
2023-03-12T12:12:09.966Z,14161.97
2023-03-12T12:16:24.380Z,14382.72
2023-03-12T12:20:38.445Z,14489.00
2023-03-12T12:24:55.214Z,14542.13
2023-03-12T12:29:13.710Z,14627.97
2023-03-12T12:33:29.636Z,14619.81
2023-03-12T12:37:48.456Z,14670.91
2023-03-12T12:41:53.082Z,14687.25
2023-03-12T12:45:59.129Z,14656.59
2023-03-12T12:50:03.600Z,14685.22
2023-03-12T12:54:12.892Z,14750.63
2023-03-12T12:58:21.783Z,14717.91
2023-03-12T13:02:27.766Z,14803.78
2023-03-12T13:06:55.075Z,14822.16
2023-03-12T13:11:02.535Z,14861.00
2023-03-12T13:15:36.039Z,14869.19
2023-03-12T13:19:43.198Z,14875.31
2023-03-12T13:23:54.825Z,14879.41
2023-03-12T13:28:01.222Z,14881.44
2023-03-12T13:32:03.564Z,14885.53
2023-03-12T13:36:11.805Z,14910.06
2023-03-12T13:40:36.404Z,14901.88
2023-03-12T13:44:39.310Z,14948.91
2023-03-12T13:48:45.312Z,14963.22
2023-03-12T13:52:49.353Z,14946.84
2023-03-12T13:56:58.791Z,14942.75
2023-03-12T14:01:02.349Z,14981.59
2023-03-12T14:05:07.792Z,14969.34
2023-03-12T14:09:19.903Z,15006.13
2023-03-12T14:13:45.126Z,15051.09
2023-03-12T14:17:58.246Z,15026.56
2023-03-12T14:22:02.684Z,15002.03
2023-03-12T14:26:05.302Z,15044.97
2023-03-12T14:30:13.084Z,15020.44
2023-03-12T14:34:18.026Z,15073.59
2023-03-12T14:38:25.301Z,15053.16
2023-03-12T14:42:29.907Z,15100.16
2023-03-12T14:46:32.820Z,15055.19
2023-03-12T14:50:37.935Z,15042.94
2023-03-12T14:54:39.719Z,15069.50
2023-03-12T14:58:46.397Z,15044.97
2023-03-12T15:02:50.960Z,15069.50
2023-03-12T15:06:55.208Z,15049.06
2023-03-12T15:10:59.749Z,15055.19
2023-03-12T15:15:05.667Z,15008.19
2023-03-12T15:19:13.006Z,15032.72
2023-03-12T15:23:15.900Z,14997.97
2023-03-12T15:27:35.258Z,14981.59
2023-03-12T15:31:44.385Z,15040.88
2023-03-12T15:36:02.830Z,15049.06
2023-03-12T15:40:07.569Z,15104.25
2023-03-12T15:44:19.203Z,15167.63
2023-03-12T15:48:26.638Z,15153.31
2023-03-12T15:52:32.952Z,15163.53
2023-03-12T15:56:35.809Z,15151.28
2023-03-12T16:00:43.029Z,15151.28
2023-03-12T16:04:44.624Z,15169.69
2023-03-12T16:08:52.426Z,15212.59
2023-03-12T16:13:01.158Z,15218.75
2023-03-12T16:17:02.867Z,15216.69
2023-03-12T16:21:04.791Z,15247.34
2023-03-12T16:25:10.106Z,15245.31
2023-03-12T16:29:15.822Z,15231.00
2023-03-12T16:33:18.914Z,15216.69
2023-03-12T16:37:20.354Z,15208.50
2023-03-12T16:41:23.258Z,15224.88
2023-03-12T16:45:24.704Z,15228.97
2023-03-12T16:49:26.204Z,15163.53
2023-03-12T16:53:28.051Z,15132.88
2023-03-12T16:57:34.208Z,15134.91
2023-03-12T17:01:35.950Z,15118.56
2023-03-12T17:05:37.497Z,15085.84
2023-03-12T17:09:38.966Z,15087.91
2023-03-12T17:13:42.352Z,15085.84
2023-03-12T17:17:43.768Z,15089.94
2023-03-12T17:21:45.968Z,15047.03
2023-03-12T17:25:47.392Z,15055.19
2023-03-12T17:29:50.442Z,15032.72
2023-03-12T17:33:52.113Z,14975.47
2023-03-12T17:37:53.590Z,15022.50
2023-03-12T17:41:55.605Z,15026.56
2023-03-12T17:46:03.345Z,14985.69
2023-03-12T17:50:06.666Z,15034.75
2023-03-12T17:54:08.097Z,15022.50
2023-03-12T17:58:09.556Z,15024.53
2023-03-12T18:02:13.310Z,15034.75
2023-03-12T18:06:14.729Z,14991.81
2023-03-12T18:10:17.187Z,15032.72
2023-03-12T18:14:18.756Z,15049.06
2023-03-12T18:18:22.495Z,15014.31
2023-03-12T18:22:24.047Z,15000.00
2023-03-12T18:26:25.627Z,15000.00
2023-03-12T18:30:27.279Z,14983.66
2023-03-12T18:34:30.041Z,14971.38
2023-03-12T18:38:33.584Z,15008.19
2023-03-12T18:42:35.034Z,15032.72
2023-03-12T18:46:36.520Z,15028.63
2023-03-12T18:50:39.384Z,14973.44
2023-03-12T18:54:41.065Z,15004.09
2023-03-12T18:58:42.526Z,14957.06
2023-03-12T19:02:47.545Z,14993.88
2023-03-12T19:06:52.024Z,14995.91
2023-03-12T19:10:53.549Z,14965.25
2023-03-12T19:15:03.141Z,14944.81
2023-03-12T19:19:04.875Z,15018.41
2023-03-12T19:23:07.876Z,14979.56
2023-03-12T19:27:09.424Z,15010.22
2023-03-12T19:31:12.266Z,15016.34
2023-03-12T19:35:14.878Z,14987.75
2023-03-12T19:39:21.612Z,15049.06
2023-03-12T19:43:24.238Z,15032.72
2023-03-12T19:47:28.105Z,15049.06
2023-03-12T19:51:29.960Z,15026.56
2023-03-12T19:55:33.668Z,15022.50
2023-03-12T19:59:38.069Z,15044.97
2023-03-12T20:03:42.281Z,15042.94
2023-03-12T20:07:44.907Z,15044.97
2023-03-12T20:11:49.140Z,15038.84
2023-03-12T20:15:50.628Z,15059.28
2023-03-12T20:19:52.258Z,15075.63
2023-03-12T20:23:55.157Z,15018.41
2023-03-12T20:27:58.569Z,15014.31
2023-03-12T20:32:00.222Z,15044.97
2023-03-12T20:36:05.147Z,15053.16
2023-03-12T20:40:08.184Z,15038.84
2023-03-12T20:44:11.585Z,15063.38
2023-03-12T20:48:15.173Z,15061.31
2023-03-12T20:52:17.857Z,15067.47
2023-03-12T20:56:20.342Z,15059.28
2023-03-12T21:00:25.248Z,15049.06
2023-03-12T21:04:26.963Z,15057.25
2023-03-12T21:08:29.254Z,15069.50
2023-03-12T21:12:30.694Z,15026.56
2023-03-12T21:16:33.565Z,15036.81
2023-03-12T21:20:36.917Z,15053.16
2023-03-12T21:24:38.362Z,15024.53
2023-03-12T21:28:39.980Z,15014.31
2023-03-12T21:32:42.923Z,15022.50
2023-03-12T21:36:44.443Z,15004.09
2023-03-12T21:40:46.519Z,15012.28
2023-03-12T21:44:51.867Z,15008.19
2023-03-12T21:48:54.710Z,15030.66
2023-03-12T21:52:57.786Z,15055.19
2023-03-12T21:57:02.476Z,15020.44
2023-03-12T22:01:07.088Z,15008.19
2023-03-12T22:05:14.032Z,15026.56
2023-03-12T22:09:15.657Z,15049.06
2023-03-12T22:13:17.197Z,15006.13
2023-03-12T22:17:18.655Z,15008.19
2023-03-12T22:21:23.542Z,15026.56
2023-03-12T22:25:25.491Z,15020.44
2023-03-12T22:29:26.933Z,15020.44
2023-03-12T22:33:29.399Z,15069.50
2023-03-12T22:37:32.690Z,15067.47
2023-03-12T22:41:34.530Z,15022.50
2023-03-12T22:45:36.541Z,15057.25
2023-03-12T22:49:37.947Z,15032.72
2023-03-12T22:53:42.426Z,15063.38
2023-03-12T22:57:44.080Z,15044.97
2023-03-12T23:01:46.234Z,15024.53
2023-03-12T23:05:47.736Z,15018.41
2023-03-12T23:09:50.946Z,15022.50
2023-03-12T23:13:53.392Z,15006.13
2023-03-12T23:17:54.850Z,15008.19
2023-03-12T23:21:56.301Z,15038.84
2023-03-12T23:26:00.431Z,15018.41
2023-03-12T23:30:02.111Z,15061.31
2023-03-12T23:34:04.315Z,15063.38
2023-03-12T23:38:06.458Z,15059.28
2023-03-12T23:42:09.341Z,15067.47
2023-03-12T23:46:11.906Z,15057.25
2023-03-12T23:50:16.641Z,15044.97
2023-03-12T23:54:18.120Z,15044.97
2023-03-12T23:58:20.909Z,15034.75
